Time;durP1;ratioP1;P1;durP2;ratioP2;P2;SDS_P1;SDS_P2;PMS_P1;PMS_P2;Temp;Humidity;BMP_temperature;BMP_pressure;BME280_temperature;BME280_humidity;BME280_pressure;Samples;Min_cycle;Max_cycle;Signal;HPM_P1;HPM_P2
2021/04/29 00:02:12;;;;;;;9.93;8.10;;;;;;;25.77;30.03;94117.38;5095309;28;20063;-50
2021/04/29 00:04:39;;;;;;;11.77;8.95;;;;;;;25.84;29.89;94113.16;5095143;28;20043;-52
2021/04/29 00:07:07;;;;;;;13.45;9.35;;;;;;;25.84;30.13;94115.84;5094988;28;20052;-50
2021/04/29 00:09:35;;;;;;;12.55;9.25;;;;;;;25.48;31.04;94110.56;5095370;28;20044;-44
2021/04/29 00:12:04;;;;;;;12.07;9.77;;;;;;;25.35;30.88;94106.78;5095282;28;20051;-47
2021/04/29 00:14:31;;;;;;;12.45;9.70;;;;;;;25.47;30.90;94106.34;5094958;28;20040;-49
2021/04/29 00:16:58;;;;;;;13.43;9.35;;;;;;;25.63;30.72;94106.69;5094921;28;20063;-48
2021/04/29 00:19:27;;;;;;;14.52;11.10;;;;;;;24.38;32.77;94114.03;5095185;28;20048;-44
2021/04/29 00:21:54;;;;;;;14.88;11.13;;;;;;;24.92;32.05;94110.22;5094801;28;20481;-49
2021/04/29 00:24:21;;;;;;;13.32;10.90;;;;;;;25.71;30.56;94107.44;5095047;28;20067;-46
2021/04/29 00:26:55;;;;;;;16.13;11.00;;;;;;;24.32;33.25;94112.13;5094838;28;20490;-48
2021/04/29 00:29:22;;;;;;;14.55;11.50;;;;;;;24.84;31.95;94121.31;5095371;28;20059;-49
2021/04/29 00:31:49;;;;;;;12.05;10.20;;;;;;;25.49;31.42;94112.06;5095171;28;20437;-50
2021/04/29 00:34:16;;;;;;;13.60;10.52;;;;;;;25.35;31.27;94120.91;5094845;28;20358;-45
2021/04/29 00:36:44;;;;;;;15.68;12.63;;;;;;;25.57;30.90;94124.31;5093947;28;20040;-51
2021/04/29 00:39:11;;;;;;;15.20;12.00;;;;;;;25.30;31.54;94120.53;5094721;28;20058;-44
2021/04/29 00:41:38;;;;;;;17.15;12.43;;;;;;;25.64;30.94;94116.25;5094941;28;20078;-48
2021/04/29 00:44:05;;;;;;;19.92;13.98;;;;;;;24.62;32.68;94119.78;5094830;28;20056;-45
2021/04/29 00:46:33;;;;;;;17.27;13.25;;;;;;;25.86;30.94;94116.97;5094820;28;20052;-49
2021/04/29 00:49:01;;;;;;;17.60;14.23;;;;;;;24.58;32.96;94112.53;5093555;28;20048;-47
2021/04/29 00:51:28;;;;;;;19.67;15.15;;;;;;;25.24;32.18;94117.47;5094610;28;20036;-45
2021/04/29 00:53:55;;;;;;;21.13;15.02;;;;;;;24.73;33.12;94115.22;5094641;28;20043;-44
2021/04/29 00:56:23;;;;;;;20.17;15.15;;;;;;;25.02;32.39;94116.75;5094746;28;20060;-47
2021/04/29 00:58:53;;;;;;;18.67;14.57;;;;;;;24.29;33.53;94121.66;5094471;28;20110;-50
2021/04/29 01:01:21;;;;;;;18.15;14.88;;;;;;;25.04;32.51;94122.50;5077083;28;20048;-52
2021/04/29 01:04:03;;;;;;;20.30;15.82;;;;;;;26.13;30.65;94117.22;5096583;28;20047;-48
2021/04/29 01:06:38;;;;;;;21.15;15.02;;;;;;;25.99;30.78;94119.97;5064928;28;20056;-45
2021/04/29 01:09:21;;;;;;;23.98;16.65;;;;;;;25.37;31.72;94115.94;5076487;28;20050;-44
2021/04/29 01:11:52;;;;;;;21.17;16.98;;;;;;;25.94;30.89;94125.72;5098280;28;20051;-44
2021/04/29 01:14:19;;;;;;;25.58;19.15;;;;;;;25.19;32.12;94126.66;5080342;28;20461;-44
2021/04/29 01:16:46;;;;;;;24.33;18.98;;;;;;;25.90;31.10;94125.75;5080360;28;20371;-50
2021/04/29 01:19:16;;;;;;;27.00;19.98;;;;;;;24.48;33.34;94121.31;5097929;28;20450;-49
2021/04/29 01:21:45;;;;;;;23.15;17.65;;;;;;;25.19;32.19;94123.22;5079850;28;20056;-53
2021/04/29 01:24:24;;;;;;;20.63;15.65;;;;;;;25.57;31.39;94132.34;5076832;28;20053;-45
2021/04/29 01:26:58;;;;;;;17.50;14.65;;;;;;;26.19;30.41;94128.28;5077820;28;20068;-53
2021/04/29 01:29:33;;;;;;;17.67;14.07;;;;;;;26.01;30.44;94137.16;5078747;28;20070;-47
2021/04/29 01:32:00;;;;;;;17.60;13.57;;;;;;;25.76;30.78;94141.84;5059997;28;20048;-53
2021/04/29 01:34:33;;;;;;;13.55;10.57;;;;;;;25.16;31.45;94135.47;5077516;28;20048;-50
2021/04/29 01:37:00;;;;;;;11.95;9.77;;;;;;;25.52;30.87;94128.16;5076431;28;20079;-45
2021/04/29 01:39:27;;;;;;;11.00;9.07;;;;;;;25.43;30.91;94133.13;5079685;28;20363;-47
2021/04/29 01:41:55;;;;;;;11.05;8.75;;;;;;;25.93;30.32;94129.56;5079802;28;20052;-45
2021/04/29 01:44:24;;;;;;;11.05;8.50;;;;;;;24.37;32.58;94141.88;5097522;28;20048;-46
2021/04/29 01:46:52;;;;;;;10.15;8.27;;;;;;;24.97;31.53;94141.16;5060904;28;20045;-45
2021/04/29 01:49:23;;;;;;;10.27;8.10;;;;;;;25.07;31.32;94140.44;5077525;28;20382;-46
2021/04/29 01:51:51;;;;;;;9.82;7.95;;;;;;;24.47;32.46;94137.72;5097315;28;20039;-51
2021/04/29 01:54:20;;;;;;;9.68;7.93;;;;;;;25.11;31.37;94130.50;5097302;28;20059;-52
2021/04/29 01:56:48;;;;;;;10.80;8.32;;;;;;;24.31;32.30;94140.72;5097300;28;20362;-50
2021/04/29 01:59:24;;;;;;;13.10;8.95;;;;;;;24.87;31.67;94131.25;5097159;28;20052;-45
2021/04/29 02:01:51;;;;;;;13.05;9.38;;;;;;;25.27;31.16;94135.47;5097328;28;20048;-52
2021/04/29 02:04:19;;;;;;;10.10;8.25;;;;;;;24.87;31.65;94139.25;5097144;28;20068;-45
2021/04/29 02:06:46;;;;;;;11.90;9.63;;;;;;;24.52;32.30;94132.75;5079227;28;20052;-49
2021/04/29 02:09:15;;;;;;;11.18;9.57;;;;;;;25.55;30.75;94133.88;5096876;28;20048;-49
2021/04/29 02:11:58;;;;;;;11.93;10.25;;;;;;;23.97;33.20;94143.66;5096760;28;20040;-50
2021/04/29 02:14:31;;;;;;;15.35;12.70;;;;;;;23.58;34.04;94140.03;5065746;28;20056;-55
2021/04/29 02:17:03;;;;;;;15.02;11.57;;;;;;;22.74;36.22;94142.47;5076706;28;20478;-51
2021/04/29 02:19:31;;;;;;;13.82;11.88;;;;;;;22.65;36.59;94139.34;5076470;28;20071;-46
2021/04/29 02:21:59;;;;;;;16.13;12.82;;;;;;;22.91;36.17;94145.69;5096601;28;20056;-50
2021/04/29 02:24:27;;;;;;;17.67;13.38;;;;;;;22.87;36.09;94144.88;5096629;28;20048;-51
2021/04/29 02:26:54;;;;;;;19.63;14.05;;;;;;;23.04;36.09;94141.59;5081156;28;20056;-49
2021/04/29 02:29:22;;;;;;;16.05;13.40;;;;;;;22.51;36.92;94143.78;5075017;28;20363;-46
2021/04/29 02:31:49;;;;;;;19.77;15.75;;;;;;;23.08;36.20;94145.81;5078969;28;20044;-51
2021/04/29 02:34:19;;;;;;;25.35;18.13;;;;;;;22.50;36.91;94153.66;5096609;28;20048;-54
2021/04/29 02:36:46;;;;;;;23.27;17.45;;;;;;;22.70;37.15;94157.66;5079161;28;20044;-46
2021/04/29 02:39:14;;;;;;;24.92;16.63;;;;;;;23.36;35.32;94153.22;5078537;28;20063;-53
2021/04/29 02:41:42;;;;;;;25.75;17.58;;;;;;;22.96;36.02;94153.34;5078680;28;20052;-51
2021/04/29 02:44:22;;;;;;;26.40;18.98;;;;;;;23.07;35.86;94148.84;5096443;28;20048;-46
2021/04/29 02:46:50;;;;;;;27.42;19.50;;;;;;;22.95;36.13;94146.47;5078514;28;20075;-49
2021/04/29 02:49:17;;;;;;;28.38;20.08;;;;;;;22.47;37.03;94159.72;5094334;28;20051;-50
2021/04/29 02:51:44;;;;;;;25.48;18.55;;;;;;;22.48;37.50;94157.84;5091091;28;20040;-46
2021/04/29 02:54:17;;;;;;;;;;;;;;;22.46;37.28;94158.19;5096668;28;20056;-54
2021/04/29 02:56:44;;;;;;;25.25;18.65;;;;;;;23.72;34.63;94153.47;5076894;28;19920;-46
2021/04/29 02:59:13;;;;;;;26.90;19.38;;;;;;;23.77;34.02;94153.09;5089811;28;20063;-45
2021/04/29 03:01:42;;;;;;;28.42;20.80;;;;;;;24.82;32.54;94155.69;5082407;28;20056;-53
2021/04/29 03:04:09;;;;;;;26.17;17.92;;;;;;;26.19;30.68;94147.78;5075560;28;20079;-55
2021/04/29 03:06:36;;;;;;;24.23;19.10;;;;;;;24.12;33.63;94157.03;5082334;28;20048;-51
2021/04/29 03:09:06;;;;;;;27.60;20.40;;;;;;;25.07;32.27;94167.19;5095735;28;20060;-52
2021/04/29 03:11:34;;;;;;;32.25;21.23;;;;;;;22.97;35.50;94170.88;5096104;28;20044;-47
2021/04/29 03:14:02;;;;;;;25.95;20.10;;;;;;;23.74;34.22;94169.88;5095903;28;20048;-45
2021/04/29 03:16:29;;;;;;;26.30;19.65;;;;;;;22.97;35.74;94170.88;5096043;28;20442;-45
2021/04/29 03:18:56;;;;;;;27.55;20.15;;;;;;;22.82;36.09;94169.97;5085544;28;20063;-44
2021/04/29 03:21:23;;;;;;;27.30;20.02;;;;;;;23.51;34.70;94174.66;5082372;28;20048;-45
2021/04/29 03:23:50;;;;;;;23.98;19.20;;;;;;;22.82;36.10;94179.84;5095739;28;20048;-43
2021/04/29 03:26:18;;;;;;;27.73;20.13;;;;;;;23.46;34.98;94175.03;5095128;28;20060;-44
2021/04/29 03:28:45;;;;;;;24.50;19.75;;;;;;;22.63;36.64;94183.47;5095643;28;20066;-45
2021/04/29 03:31:12;;;;;;;26.35;20.30;;;;;;;22.50;36.79;94179.53;5095758;28;20048;-44
2021/04/29 03:33:50;;;;;;;26.90;20.02;;;;;;;22.55;37.03;94187.19;5095552;28;20044;-44
2021/04/29 03:36:17;;;;;;;22.45;15.63;;;;;;;25.07;33.26;94188.56;5094718;28;20044;-47
2021/04/29 03:38:53;;;;;;;18.10;14.00;;;;;;;29.80;25.55;94191.00;5073700;28;20052;-54
2021/04/29 03:41:20;;;;;;;15.95;13.65;;;;;;;31.38;23.31;94192.72;5075258;28;20048;-50
2021/04/29 03:43:48;;;;;;;13.25;10.48;;;;;;;32.46;21.84;94198.34;5075284;28;20052;-51
2021/04/29 03:46:15;;;;;;;12.10;10.90;;;;;;;33.21;20.76;94200.78;5075195;28;20359;-53
2021/04/29 03:48:42;;;;;;;11.93;10.75;;;;;;;33.82;19.93;94199.56;5082477;28;20060;-61
2021/04/29 03:51:10;;;;;;;12.77;11.48;;;;;;;34.20;19.61;94202.94;5078216;28;20047;-51
2021/04/29 03:53:37;;;;;;;10.60;9.45;;;;;;;34.60;19.06;94202.25;5076130;28;20045;-52
2021/04/29 03:56:04;;;;;;;10.70;8.82;;;;;;;35.00;18.51;94196.16;5075207;28;20481;-65
2021/04/29 03:58:31;;;;;;;11.38;9.20;;;;;;;35.31;18.32;94204.22;5070136;28;20048;-58
2021/04/29 04:00:58;;;;;;;9.90;8.20;;;;;;;34.56;18.95;94207.06;5074871;28;20056;-54
2021/04/29 04:03:25;;;;;;;9.02;7.18;;;;;;;33.91;19.47;94202.41;5074698;28;20051;-52
2021/04/29 04:05:53;;;;;;;9.57;8.55;;;;;;;33.43;19.74;94204.38;5075072;28;20375;-55
2021/04/29 04:08:20;;;;;;;12.10;10.70;;;;;;;28.50;25.95;94212.19;5076369;28;20052;-47
2021/04/29 04:10:56;;;;;;;14.05;10.45;;;;;;;27.15;28.10;94216.22;5089729;28;20048;-50
2021/04/29 04:13:23;;;;;;;15.85;11.23;;;;;;;26.67;28.53;94209.59;5076853;28;20055;-51
2021/04/29 04:15:51;;;;;;;15.70;12.32;;;;;;;26.03;29.39;94220.59;5094956;28;20056;-57
2021/04/29 04:18:18;;;;;;;15.00;11.70;;;;;;;26.31;29.57;94219.72;5094824;28;20425;-50
2021/04/29 04:20:45;;;;;;;18.88;14.05;;;;;;;26.07;30.04;94215.22;5076415;28;20051;-48
2021/04/29 04:23:12;;;;;;;18.95;13.88;;;;;;;26.41;29.24;94208.19;5077736;28;20048;-48
2021/04/29 04:25:39;;;;;;;18.90;13.88;;;;;;;25.51;30.65;94216.84;5074924;28;20467;-53
2021/04/29 04:28:07;;;;;;;16.45;13.13;;;;;;;25.48;30.53;94212.22;5085249;28;20490;-49
2021/04/29 04:30:34;;;;;;;18.58;14.32;;;;;;;26.29;29.13;94226.63;5090076;28;20052;-48
2021/04/29 04:33:01;;;;;;;16.30;13.10;;;;;;;26.06;29.59;94219.81;5088923;28;20059;-47
2021/04/29 04:35:28;;;;;;;16.45;14.05;;;;;;;26.68;29.08;94221.09;5089737;28;20048;-51
2021/04/29 04:37:55;;;;;;;15.88;13.40;;;;;;;25.90;30.02;94221.38;5091653;28;20485;-47
2021/04/29 04:40:22;;;;;;;18.95;13.60;;;;;;;26.71;29.03;94231.03;5097580;28;20044;-59
2021/04/29 04:42:50;;;;;;;18.85;14.25;;;;;;;26.71;28.89;94236.38;5078973;28;20048;-47
2021/04/29 04:45:17;;;;;;;19.27;15.18;;;;;;;26.49;29.27;94241.09;5078245;28;20059;-50
2021/04/29 04:47:44;;;;;;;19.00;13.70;;;;;;;27.49;27.44;94245.84;5086439;28;20366;-47
2021/04/29 04:50:11;;;;;;;18.35;13.68;;;;;;;26.00;30.13;94245.44;5098789;28;20055;-46
2021/04/29 04:52:40;;;;;;;19.85;14.38;;;;;;;26.94;28.68;94243.91;5098079;28;20040;-46
2021/04/29 04:55:08;;;;;;;21.15;13.82;;;;;;;26.81;29.01;94246.31;5098620;28;20087;-46
2021/04/29 04:57:35;;;;;;;15.40;12.80;;;;;;;27.26;28.02;94254.44;5098273;28;20055;-48
2021/04/29 05:00:02;;;;;;;19.90;15.70;;;;;;;26.56;29.06;94254.47;5097600;28;20078;-48
2021/04/29 05:02:29;;;;;;;22.05;17.20;;;;;;;26.47;28.84;94248.00;5098250;28;20044;-47
2021/04/29 05:04:59;;;;;;;22.73;17.20;;;;;;;27.21;28.02;94246.81;5098358;28;20067;-47
2021/04/29 05:07:26;;;;;;;19.52;16.73;;;;;;;26.71;28.71;94253.22;5098107;28;20051;-49
2021/04/29 05:09:53;;;;;;;22.30;16.77;;;;;;;26.64;28.65;94252.50;5098369;28;20055;-49
2021/04/29 05:12:20;;;;;;;21.52;17.55;;;;;;;26.41;29.15;94248.41;5098329;28;20370;-51
2021/04/29 05:14:47;;;;;;;22.70;18.08;;;;;;;26.95;27.93;94256.16;5098238;28;20047;-48
2021/04/29 05:17:14;;;;;;;25.17;19.13;;;;;;;27.57;26.94;94252.66;5097973;28;20062;-48
2021/04/29 05:19:41;;;;;;;23.17;17.17;;;;;;;26.40;28.95;94252.22;5098214;28;20051;-49
2021/04/29 05:22:10;;;;;;;21.70;16.70;;;;;;;27.91;26.41;94255.47;5097696;28;20052;-50
2021/04/29 05:24:37;;;;;;;20.52;15.77;;;;;;;27.07;27.81;94253.06;5087300;28;20051;-47
2021/04/29 05:27:04;;;;;;;22.10;17.33;;;;;;;26.57;28.69;94253.31;5079054;28;20079;-47
2021/04/29 05:29:32;;;;;;;21.80;19.15;;;;;;;26.38;28.80;94257.22;5080032;28;20462;-47
2021/04/29 05:31:59;;;;;;;24.98;18.63;;;;;;;27.01;28.02;94260.75;5077696;28;20045;-46
2021/04/29 05:34:26;;;;;;;22.35;17.27;;;;;;;26.88;27.97;94262.34;5077439;28;20060;-48
2021/04/29 05:36:53;;;;;;;26.67;18.88;;;;;;;27.29;27.55;94269.75;5077538;28;20040;-46
2021/04/29 05:39:20;;;;;;;28.20;20.13;;;;;;;28.06;26.61;94262.19;5087977;28;20056;-51
2021/04/29 05:41:47;;;;;;;22.45;18.58;;;;;;;28.67;25.18;94273.06;5077396;28;20048;-52
2021/04/29 05:44:14;;;;;;;19.48;17.35;;;;;;;27.95;26.38;94273.06;5077350;28;20048;-49
2021/04/29 05:46:43;;;;;;;22.23;18.83;;;;;;;27.17;27.68;94272.91;5077386;28;20485;-51
2021/04/29 05:49:10;;;;;;;23.40;19.27;;;;;;;26.69;28.60;94276.22;5094528;28;20458;-49
2021/04/29 05:51:39;;;;;;;21.05;18.00;;;;;;;27.27;27.50;94278.19;5088473;28;20438;-49
2021/04/29 05:54:06;;;;;;;22.67;18.15;;;;;;;26.95;27.73;94274.94;5097366;28;20052;-48
2021/04/29 05:56:33;;;;;;;20.83;17.80;;;;;;;27.10;27.78;94278.34;5097444;28;20039;-54
2021/04/29 05:59:00;;;;;;;22.83;18.42;;;;;;;27.73;27.11;94281.72;5097150;28;20048;-51
2021/04/29 06:01:27;;;;;;;20.13;17.95;;;;;;;27.03;28.14;94274.53;5097373;28;20366;-51
2021/04/29 06:03:54;;;;;;;23.20;18.88;;;;;;;27.06;28.01;94272.22;5097178;28;20051;-52
2021/04/29 06:06:21;;;;;;;26.10;18.67;;;;;;;27.54;27.36;94281.06;5086571;28;20044;-48
2021/04/29 06:08:50;;;;;;;23.38;19.05;;;;;;;28.10;26.60;94281.72;5091322;28;20052;-47
2021/04/29 06:11:18;;;;;;;23.45;19.00;;;;;;;28.53;25.69;94279.38;5091229;28;20044;-48
2021/04/29 06:13:45;;;;;;;24.38;19.20;;;;;;;26.88;28.57;94278.44;5076709;28;20040;-46
2021/04/29 06:16:14;;;;;;;23.63;19.55;;;;;;;27.47;27.92;94286.50;5076851;28;20045;-48
2021/04/29 06:18:42;;;;;;;24.90;19.25;;;;;;;28.09;26.83;94288.25;5089716;28;20044;-47
2021/04/29 06:21:09;;;;;;;27.10;20.25;;;;;;;26.73;28.61;94293.81;5096804;28;20052;-48
2021/04/29 06:23:36;;;;;;;24.17;19.52;;;;;;;27.20;28.24;94288.22;5096741;28;20055;-47
2021/04/29 06:26:04;;;;;;;25.42;20.30;;;;;;;27.63;27.35;94294.84;5096834;28;20366;-48
2021/04/29 06:28:31;;;;;;;23.30;19.13;;;;;;;28.46;26.33;94294.81;5096485;28;20343;-48
2021/04/29 06:30:58;;;;;;;25.15;19.88;;;;;;;28.56;26.04;94300.06;5095761;28;20051;-47
2021/04/29 06:33:26;;;;;;;25.80;19.40;;;;;;;29.17;25.06;94299.31;5076285;28;20051;-45
2021/04/29 06:35:54;;;;;;;24.45;20.77;;;;;;;29.58;24.27;94295.66;5076335;28;20040;-48
2021/04/29 06:38:23;;;;;;;26.65;22.77;;;;;;;27.19;27.98;94292.06;5086109;28;20052;-46
2021/04/29 06:40:50;;;;;;;28.80;22.48;;;;;;;28.25;26.78;94298.50;5078555;28;20762;-48
2021/04/29 06:43:17;;;;;;;30.13;23.35;;;;;;;27.35;28.13;94297.72;5096349;28;20047;-47
2021/04/29 06:45:44;;;;;;;29.30;22.92;;;;;;;27.16;28.53;94282.88;5096334;28;20044;-49
2021/04/29 06:48:12;;;;;;;31.23;23.27;;;;;;;27.43;28.72;94299.19;5090018;28;20052;-50
2021/04/29 06:50:39;;;;;;;32.50;24.35;;;;;;;26.49;29.89;94285.88;5076867;28;20075;-53
2021/04/29 06:53:06;;;;;;;30.98;24.60;;;;;;;28.22;27.80;94300.03;5096180;28;20055;-47
2021/04/29 06:55:34;;;;;;;28.30;23.42;;;;;;;28.52;27.83;94287.84;5096292;28;20044;-48
2021/04/29 06:58:01;;;;;;;29.98;22.35;;;;;;;26.84;29.96;94283.06;5095352;28;20331;-51
2021/04/29 07:00:28;;;;;;;27.60;23.15;;;;;;;27.20;29.13;94286.31;5096225;28;20044;-47
2021/04/29 07:02:59;;;;;;;29.23;22.02;;;;;;;30.38;24.31;94281.19;5080201;28;20549;-48
2021/04/29 07:05:27;;;;;;;28.75;21.15;;;;;;;28.04;27.74;94286.00;5058314;28;20045;-46
2021/04/29 07:07:55;;;;;;;26.20;20.90;;;;;;;27.97;28.21;94285.34;5080558;28;20059;-49
2021/04/29 07:10:23;;;;;;;25.08;21.60;;;;;;;27.82;28.24;94282.00;5074707;28;20044;-49
2021/04/29 07:12:50;;;;;;;27.45;21.45;;;;;;;27.49;28.38;94289.53;5075465;28;20040;-47
2021/04/29 07:15:18;;;;;;;26.92;21.85;;;;;;;28.40;27.73;94275.69;5075715;28;20087;-50
2021/04/29 07:17:47;;;;;;;27.52;21.75;;;;;;;27.95;27.38;94288.41;5079075;28;20051;-48
2021/04/29 07:20:14;;;;;;;26.13;20.67;;;;;;;30.33;24.37;94289.75;5095895;28;20485;-49
2021/04/29 07:22:42;;;;;;;28.60;22.08;;;;;;;29.04;26.18;94292.97;5094826;28;20055;-50
2021/04/29 07:25:09;;;;;;;24.33;20.27;;;;;;;29.12;25.75;94286.31;5083054;28;20056;-48
2021/04/29 07:27:36;;;;;;;23.50;20.83;;;;;;;29.39;26.34;94286.28;5077259;28;20044;-47
2021/04/29 07:30:04;;;;;;;28.88;20.90;;;;;;;29.40;26.99;94285.88;5095703;28;20043;-75
2021/04/29 07:32:32;;;;;;;26.52;20.98;;;;;;;29.24;27.11;94282.31;5082352;28;20139;-49
2021/04/29 07:34:59;;;;;;;28.27;20.52;;;;;;;29.56;26.59;94281.84;5075340;28;20051;-48
2021/04/29 07:37:26;;;;;;;22.52;18.60;;;;;;;29.51;26.41;94279.63;5075316;28;20383;-51
2021/04/29 07:39:53;;;;;;;25.38;20.17;;;;;;;29.59;26.29;94276.38;5095701;28;20469;-49
2021/04/29 07:42:20;;;;;;;25.27;19.67;;;;;;;29.74;26.04;94282.31;5095447;28;20358;-49
2021/04/29 07:44:47;;;;;;;23.73;18.83;;;;;;;29.49;26.52;94271.19;5095530;28;20456;-45
2021/04/29 07:47:14;;;;;;;27.40;20.70;;;;;;;29.41;26.79;94276.66;5095586;28;20047;-51
2021/04/29 07:49:41;;;;;;;24.52;19.38;;;;;;;29.36;26.62;94277.09;5095242;28;20051;-48
2021/04/29 07:52:09;;;;;;;26.88;20.88;;;;;;;30.07;26.35;94278.69;5095094;28;20043;-47
2021/04/29 07:54:36;;;;;;;22.70;18.55;;;;;;;29.56;26.71;94282.59;5095345;28;20047;-47
2021/04/29 07:57:03;;;;;;;24.70;18.77;;;;;;;30.13;25.35;94275.50;5084691;28;20390;-49
2021/04/29 07:59:30;;;;;;;21.10;17.85;;;;;;;29.81;25.58;94274.09;5091740;28;20039;-47
2021/04/29 08:01:58;;;;;;;25.23;18.52;;;;;;;29.82;26.12;94266.78;5095151;28;20050;-48
2021/04/29 08:04:29;;;;;;;21.33;17.80;;;;;;;30.19;25.38;94263.06;5094604;28;20469;-48
2021/04/29 08:06:56;;;;;;;20.67;17.02;;;;;;;30.59;24.05;94269.22;5095451;28;20056;-49
2021/04/29 08:09:23;;;;;;;24.95;16.30;;;;;;;31.81;22.90;94268.84;5095010;28;20366;-48
2021/04/29 08:11:52;;;;;;;27.95;17.88;;;;;;;31.76;23.71;94263.22;5095304;28;20043;-48
2021/04/29 08:14:19;;;;;;;26.08;17.90;;;;;;;30.73;24.90;94270.91;5079121;28;20040;-49
2021/04/29 08:16:46;;;;;;;26.27;18.08;;;;;;;30.59;25.01;94275.38;5079157;28;20051;-50
2021/04/29 08:19:13;;;;;;;20.52;16.55;;;;;;;30.61;25.14;94262.25;5092821;28;20059;-51
2021/04/29 08:21:40;;;;;;;26.67;17.92;;;;;;;30.75;25.06;94268.56;5098995;28;20051;-49
2021/04/29 08:24:08;;;;;;;24.88;18.73;;;;;;;31.46;23.79;94269.66;5078409;28;20081;-49
2021/04/29 08:26:36;;;;;;;26.65;18.77;;;;;;;30.64;24.34;94255.25;5078875;28;20053;-49
2021/04/29 08:29:04;;;;;;;24.35;18.58;;;;;;;31.01;24.75;94264.91;5091137;28;20074;-53
2021/04/29 08:31:32;;;;;;;22.48;16.40;;;;;;;31.05;24.55;94272.91;5096696;28;20046;-51
2021/04/29 08:33:59;;;;;;;22.65;18.05;;;;;;;31.01;24.46;94264.13;5078661;28;20047;-50
2021/04/29 08:36:29;;;;;;;30.40;19.33;;;;;;;30.88;24.73;94264.00;5078810;28;20335;-49
2021/04/29 08:38:58;;;;;;;23.45;17.85;;;;;;;31.49;24.11;94263.41;5089404;28;20060;-50
2021/04/29 08:41:25;;;;;;;23.25;17.92;;;;;;;32.38;23.40;94251.16;5098958;28;20047;-49
2021/04/29 08:43:52;;;;;;;23.23;18.10;;;;;;;31.53;23.52;94254.06;5093962;28;20055;-49
2021/04/29 08:46:19;;;;;;;20.88;16.48;;;;;;;31.70;23.42;94251.34;5078614;28;20044;-48
2021/04/29 08:48:54;;;;;;;20.92;17.02;;;;;;;31.37;23.74;94247.91;5082131;28;20063;-46
2021/04/29 08:51:22;;;;;;;25.60;19.23;;;;;;;32.12;23.48;94249.53;5084978;28;20055;-48
2021/04/29 08:53:50;;;;;;;21.75;16.40;;;;;;;31.66;23.48;94256.84;5098491;28;20044;-52
2021/04/29 08:56:21;;;;;;;25.08;17.80;;;;;;;32.31;22.78;94243.25;5098559;28;20366;-48
2021/04/29 08:58:59;;;;;;;20.13;17.27;;;;;;;32.66;22.58;94243.41;5098258;28;20070;-48
2021/04/29 09:01:37;;;;;;;27.65;18.05;;;;;;;31.78;23.94;94247.31;5082948;28;20044;-49
2021/04/29 09:04:14;;;;;;;22.73;17.08;;;;;;;31.76;24.35;94239.66;5077991;28;20086;-49
2021/04/29 09:06:46;;;;;;;23.60;16.30;;;;;;;32.71;23.29;94240.16;5077950;28;20048;-51
2021/04/29 09:09:14;;;;;;;23.63;16.95;;;;;;;32.17;23.06;94238.94;5089605;28;20048;-53
2021/04/29 09:11:52;;;;;;;22.63;16.52;;;;;;;32.93;22.22;94235.69;5079989;28;20056;-54
2021/04/29 09:14:36;;;;;;;19.88;16.48;;;;;;;32.39;22.33;94232.97;5077940;28;20043;-50
2021/04/29 09:17:10;;;;;;;22.90;17.70;;;;;;;32.39;22.32;94220.22;5078192;28;20051;-48
2021/04/29 09:19:47;;;;;;;24.90;18.42;;;;;;;32.80;22.32;94224.84;5092551;28;20047;-50
2021/04/29 09:22:22;;;;;;;27.10;19.48;;;;;;;32.79;22.92;94226.06;5096630;28;20050;-52
2021/04/29 09:24:50;;;;;;;26.70;20.33;;;;;;;32.01;23.63;94222.78;5076407;28;20051;-51
2021/04/29 09:27:25;;;;;;;24.17;19.20;;;;;;;32.62;23.20;94224.59;5077905;28;20048;-59
2021/04/29 09:29:52;;;;;;;25.98;20.15;;;;;;;32.44;24.10;94222.38;5094623;28;20051;-52
2021/04/29 09:32:23;;;;;;;24.25;20.90;;;;;;;32.66;23.81;94217.13;5097799;28;20055;-48
2021/04/29 09:34:50;;;;;;;33.25;22.05;;;;;;;32.48;23.79;94223.03;5097811;28;20036;-53
2021/04/29 09:37:46;;;;;;;25.17;19.73;;;;;;;33.10;23.26;94220.84;5097953;28;20044;-52
2021/04/29 09:40:29;;;;;;;28.63;18.77;;;;;;;32.53;23.85;94221.78;5076452;28;20047;-50
2021/04/29 09:42:59;;;;;;;26.77;18.67;;;;;;;31.94;24.09;94224.91;5097502;28;20446;-53
2021/04/29 09:45:34;;;;;;;23.83;18.83;;;;;;;32.45;23.70;94212.31;5097779;28;20048;-49
2021/04/29 09:48:08;;;;;;;25.60;17.15;;;;;;;31.99;24.86;94219.72;5097379;28;20462;-50
2021/04/29 09:50:41;;;;;;;21.63;17.10;;;;;;;33.05;23.54;94205.16;5079580;28;20059;-54
2021/04/29 09:53:10;;;;;;;26.70;17.65;;;;;;;32.29;23.99;94215.88;5097344;28;20056;-49
2021/04/29 09:55:41;;;;;;;22.25;17.85;;;;;;;32.60;23.10;94218.09;5097418;28;20055;-54
2021/04/29 10:00:42;;;;;;;26.05;14.35;;;;;;;32.62;22.84;94215.72;5097327;28;20048;-48
2021/04/29 10:03:10;;;;;;;25.70;15.45;;;;;;;32.80;23.23;94194.34;5097222;28;20052;-50
2021/04/29 10:05:39;;;;;;;23.33;15.50;;;;;;;32.64;24.08;94207.91;5097349;28;20051;-47
2021/04/29 10:08:14;;;;;;;23.38;16.98;;;;;;;32.58;24.76;94201.53;5097075;28;20059;-50
2021/04/29 10:10:47;;;;;;;22.05;15.75;;;;;;;32.74;23.95;94196.00;5097155;28;20059;-49
2021/04/29 10:13:14;;;;;;;21.83;16.67;;;;;;;33.02;23.78;94195.16;5097072;28;20051;-49
2021/04/29 10:15:43;;;;;;;18.27;14.60;;;;;;;32.84;24.01;94184.16;5078688;28;20119;-51
2021/04/29 10:18:12;;;;;;;22.88;15.63;;;;;;;32.59;23.54;94184.09;5077979;28;20040;-47
2021/04/29 10:20:41;;;;;;;22.30;15.10;;;;;;;32.89;23.47;94180.13;5096754;28;20052;-50
2021/04/29 10:23:10;;;;;;;18.88;15.25;;;;;;;32.55;24.06;94186.16;5096772;28;20044;-51
2021/04/29 10:25:37;;;;;;;65.43;47.55;;;;;;;32.71;24.83;94183.34;5079097;28;20050;-51
2021/04/29 10:28:05;;;;;;;22.58;17.40;;;;;;;32.83;23.55;94182.63;5096927;28;20044;-55
2021/04/29 10:30:33;;;;;;;21.67;15.93;;;;;;;32.51;23.19;94173.47;5097146;28;20366;-51
2021/04/29 10:33:21;;;;;;;21.50;14.88;;;;;;;32.76;24.20;94177.38;5096656;28;20477;-52
2021/04/29 10:35:56;;;;;;;19.55;13.63;;;;;;;33.04;23.91;94176.53;5095850;28;20047;-49
2021/04/29 10:38:32;;;;;;;18.42;13.52;;;;;;;32.92;23.59;94174.59;5096525;28;20048;-53
2021/04/29 10:41:02;;;;;;;15.90;10.90;;;;;;;32.84;23.18;94170.63;5096667;28;20052;-51
2021/04/29 10:43:32;;;;;;;14.05;10.77;;;;;;;32.66;24.41;94173.06;5096356;28;20047;-49
2021/04/29 10:46:03;;;;;;;14.07;11.32;;;;;;;33.36;22.63;94175.56;5096213;28;20055;-51
2021/04/29 10:48:32;;;;;;;15.15;10.73;;;;;;;33.53;22.07;94178.84;5096267;28;20324;-51
2021/04/29 10:51:11;;;;;;;16.70;11.48;;;;;;;32.19;23.04;94189.84;5096067;28;20059;-48
2021/04/29 10:53:40;;;;;;;16.42;10.18;;;;;;;32.46;23.48;94184.09;5077839;28;20501;-49
2021/04/29 10:56:18;;;;;;;16.95;10.68;;;;;;;32.80;22.67;94180.78;5096073;28;20051;-49
2021/04/29 10:58:46;;;;;;;14.18;8.93;;;;;;;32.75;22.52;94176.63;5096251;28;20458;-49
2021/04/29 11:01:18;;;;;;;17.45;11.43;;;;;;;32.54;23.38;94173.81;5096281;28;20074;-54
2021/04/29 11:03:50;;;;;;;;;;;;;;;33.01;23.13;94188.25;5096535;28;20040;-50
2021/04/29 11:06:33;;;;;;;16.75;10.75;;;;;;;32.25;22.98;94171.13;5095924;28;19919;-50
2021/04/29 11:09:04;;;;;;;13.63;10.50;;;;;;;32.63;22.88;94163.09;5096182;28;20055;-52
2021/04/29 11:11:35;;;;;;;17.65;11.65;;;;;;;32.24;23.39;94159.56;5095981;28;20051;-54
2021/04/29 11:14:05;;;;;;;17.40;11.52;;;;;;;32.51;23.62;94162.66;5095941;28;20039;-49
2021/04/29 11:16:55;;;;;;;16.80;11.23;;;;;;;32.33;23.96;94161.69;5095960;28;20048;-51
2021/04/29 11:19:39;;;;;;;16.23;11.55;;;;;;;32.02;24.12;94158.66;5095846;28;20065;-52
2021/04/29 11:22:11;;;;;;;14.57;10.45;;;;;;;32.31;24.26;94159.41;5095483;28;20354;-48
2021/04/29 11:24:42;;;;;;;16.38;10.18;;;;;;;32.56;23.42;94152.50;5092231;28;20045;-50
2021/04/29 11:27:26;;;;;;;13.45;9.75;;;;;;;32.50;23.15;94155.72;5095084;28;20056;-49
2021/04/29 11:30:02;;;;;;;14.93;8.70;;;;;;;32.46;22.30;94144.25;5095872;28;20048;-48
2021/04/29 11:32:32;;;;;;;12.90;7.95;;;;;;;32.91;21.11;94134.44;5095616;28;20066;-48